createdAt,value
2023-02-06T00:00:34.254Z,99659.38
2023-02-06T00:04:37.401Z,99652.50
2023-02-06T00:08:40.620Z,99658.47
2023-02-06T00:12:45.347Z,99655.88
2023-02-06T00:16:48.979Z,99655.94
2023-02-06T00:20:51.890Z,99660.22
2023-02-06T00:24:55.095Z,99663.66
2023-02-06T00:28:59.518Z,99658.59
2023-02-06T00:33:02.692Z,99672.31
2023-02-06T00:37:06.169Z,99672.38
2023-02-06T00:41:09.300Z,99676.66
2023-02-06T00:45:13.912Z,99681.75
2023-02-06T00:49:17.544Z,99685.19
2023-02-06T00:53:20.476Z,99674.97
2023-02-06T00:57:23.681Z,99691.13
2023-02-06T01:01:28.750Z,99692.03
2023-02-06T01:05:32.160Z,99692.16
2023-02-06T01:09:36.023Z,99690.56
2023-02-06T01:13:39.357Z,99686.41
2023-02-06T01:17:44.158Z,99688.25
2023-02-06T01:21:47.566Z,99678.13
2023-02-06T01:25:50.442Z,99666.38
2023-02-06T01:29:53.754Z,99664.84
2023-02-06T01:34:00.594Z,99674.38
2023-02-06T01:38:03.480Z,99676.22
2023-02-06T01:42:07.272Z,99670.44
2023-02-06T01:46:10.946Z,99684.88
2023-02-06T01:50:17.672Z,99677.25
2023-02-06T01:54:21.520Z,99680.66
2023-02-06T01:58:31.321Z,99677.25
2023-02-06T02:02:35.951Z,99672.25
2023-02-06T02:06:42.291Z,99685.72
2023-02-06T02:10:46.075Z,99685.72
2023-02-06T02:14:51.675Z,99679.75
2023-02-06T02:19:14.348Z,99679.81
2023-02-06T02:23:41.772Z,99680.75
2023-02-06T02:28:01.888Z,99670.69
2023-02-06T02:32:27.897Z,99673.44
2023-02-06T02:36:36.158Z,99672.66
2023-02-06T02:40:49.249Z,99682.16
2023-02-06T02:44:56.929Z,99676.28
2023-02-06T02:49:06.130Z,99664.50
2023-02-06T02:53:11.006Z,99662.94
2023-02-06T02:57:18.532Z,99659.66
2023-02-06T03:01:24.308Z,99654.66
2023-02-06T03:05:28.868Z,99664.03
2023-02-06T03:09:46.286Z,99668.38
2023-02-06T03:13:55.571Z,99666.75
2023-02-06T03:18:05.448Z,99672.75
2023-02-06T03:22:08.829Z,99678.69
2023-02-06T03:26:17.421Z,99671.97
2023-02-06T03:30:25.004Z,99677.91
2023-02-06T03:34:36.890Z,99672.78
2023-02-06T03:38:39.869Z,99678.66
2023-02-06T03:42:52.188Z,99687.09
2023-02-06T03:46:57.330Z,99681.97
2023-02-06T03:51:04.068Z,99675.13
2023-02-06T03:55:12.694Z,99682.66
2023-02-06T03:59:17.715Z,99684.38
2023-02-06T04:03:23.190Z,99692.00
2023-02-06T04:07:28.702Z,99681.03
2023-02-06T04:11:31.833Z,99686.06
2023-02-06T04:15:36.376Z,99690.28
2023-02-06T04:19:40.746Z,99688.63
2023-02-06T04:23:44.066Z,99676.69
2023-02-06T04:27:46.995Z,99681.78
2023-02-06T04:31:51.494Z,99680.91
2023-02-06T04:35:54.902Z,99680.94
2023-02-06T04:39:57.773Z,99680.94
2023-02-06T04:44:01.205Z,99670.75
2023-02-06T04:48:06.067Z,99668.22
2023-02-06T04:52:09.427Z,99671.63
2023-02-06T04:56:13.893Z,99658.13
2023-02-06T05:00:17.931Z,99662.34
2023-02-06T05:04:22.173Z,99657.25
2023-02-06T05:08:25.596Z,99654.69
2023-02-06T05:12:29.463Z,99657.31
2023-02-06T05:16:34.038Z,99655.59
2023-02-06T05:20:38.298Z,99640.31
2023-02-06T05:24:41.471Z,99642.94
2023-02-06T05:28:45.092Z,99647.19
2023-02-06T05:32:48.349Z,99647.22
2023-02-06T05:36:52.749Z,99639.69
2023-02-06T05:40:55.835Z,99649.91
2023-02-06T05:45:00.321Z,99652.47
2023-02-06T05:49:03.606Z,99633.84
2023-02-06T05:53:08.106Z,99631.31
2023-02-06T05:57:11.647Z,99640.66
2023-02-06T06:01:15.263Z,99640.66
2023-02-06T06:05:18.578Z,99641.47
2023-02-06T06:09:23.427Z,99633.06
2023-02-06T06:13:26.794Z,99646.63
2023-02-06T06:17:30.056Z,99652.56
2023-02-06T06:21:34.348Z,99650.00
2023-02-06T06:25:39.283Z,99638.13
2023-02-06T06:29:42.315Z,99646.50
2023-02-06T06:33:45.842Z,99656.63
2023-02-06T06:37:48.967Z,99651.50
2023-02-06T06:41:53.973Z,99641.38
2023-02-06T06:45:57.098Z,99649.69
2023-02-06T06:50:00.399Z,99644.50
2023-02-06T06:54:34.050Z,99643.53
2023-02-06T06:58:39.059Z,99640.88
2023-02-06T07:02:42.740Z,99650.91
2023-02-06T07:06:45.857Z,99633.75
2023-02-06T07:10:49.322Z,99647.16
2023-02-06T07:14:53.761Z,99643.56
2023-02-06T07:18:57.023Z,99641.75
2023-02-06T07:23:01.795Z,99630.47
2023-02-06T07:27:05.099Z,99631.88
2023-02-06T07:31:10.222Z,99633.22
2023-02-06T07:35:15.637Z,99636.16
2023-02-06T07:39:18.813Z,99636.47
2023-02-06T07:43:21.844Z,99638.47
2023-02-06T07:47:26.524Z,99635.31
2023-02-06T07:51:30.207Z,99631.13
2023-02-06T07:55:33.455Z,99633.53
2023-02-06T07:59:36.898Z,99625.47
2023-02-06T08:03:41.891Z,99622.34
2023-02-06T08:07:44.746Z,99633.63
2023-02-06T08:11:48.082Z,99619.38
2023-02-06T08:15:51.045Z,99628.47
2023-02-06T08:19:55.880Z,99623.41
2023-02-06T08:24:00.375Z,99637.66
2023-02-06T08:28:03.297Z,99647.00
2023-02-06T08:32:06.225Z,99646.16
2023-02-06T08:36:12.341Z,99651.03
2023-02-06T08:40:15.214Z,99649.06
2023-02-06T08:44:19.938Z,99645.03
2023-02-06T08:48:23.384Z,99641.81
2023-02-06T08:52:28.396Z,99639.56
2023-02-06T08:56:33.456Z,99649.34
2023-02-06T09:00:36.847Z,99646.47
2023-02-06T09:04:40.528Z,99650.78
2023-02-06T09:08:44.991Z,99653.50
2023-02-06T09:12:48.499Z,99650.34
2023-02-06T09:16:51.941Z,99654.66
2023-02-06T09:21:05.097Z,99654.41
2023-02-06T09:25:10.457Z,99656.63
2023-02-06T09:29:13.792Z,99666.59
2023-02-06T09:33:17.100Z,99670.50
2023-02-06T09:37:20.079Z,99670.03
2023-02-06T09:41:31.814Z,99672.69
2023-02-06T09:45:35.345Z,99665.91
2023-02-06T09:49:44.863Z,99657.84
2023-02-06T09:53:56.790Z,99653.81
2023-02-06T09:58:08.620Z,99645.28
2023-02-06T10:02:33.357Z,99640.78
2023-02-06T10:06:44.449Z,99633.06
2023-02-06T10:10:52.272Z,99622.97
2023-02-06T10:15:01.998Z,99613.06
2023-02-06T10:19:11.247Z,99606.88
2023-02-06T10:23:20.060Z,99600.72
2023-02-06T10:27:23.767Z,99595.66
2023-02-06T10:31:47.944Z,99587.56
2023-02-06T10:35:56.335Z,99586.75
2023-02-06T10:40:29.279Z,99584.25
2023-02-06T10:44:36.813Z,99566.78
2023-02-06T10:48:46.639Z,99554.97
2023-02-06T10:52:51.248Z,99542.28
2023-02-06T10:56:56.881Z,99531.38
2023-02-06T11:01:01.237Z,99541.09
2023-02-06T11:05:10.396Z,99529.50
2023-02-06T11:09:14.049Z,99519.50
2023-02-06T11:13:24.658Z,99520.34
2023-02-06T11:17:28.817Z,99508.09
2023-02-06T11:22:11.337Z,99498.16
2023-02-06T11:26:17.218Z,99499.50
2023-02-06T11:30:30.035Z,99489.22
2023-02-06T11:34:36.011Z,99481.63
2023-02-06T11:38:54.823Z,99470.22
2023-02-06T11:43:17.485Z,99468.16
2023-02-06T11:47:28.426Z,99467.66
2023-02-06T11:51:48.004Z,99460.00
2023-02-06T11:56:03.676Z,99456.97
2023-02-06T12:00:23.374Z,99459.34
2023-02-06T12:04:30.944Z,99452.69
2023-02-06T12:08:44.640Z,99456.56
2023-02-06T12:12:53.573Z,99453.44
2023-02-06T12:16:58.114Z,99446.41
2023-02-06T12:21:06.496Z,99447.16
2023-02-06T12:25:27.306Z,99439.03
2023-02-06T12:29:36.912Z,99427.53
2023-02-06T12:33:45.972Z,99408.28
2023-02-06T12:37:55.636Z,99412.00
2023-02-06T12:42:22.247Z,99407.84
2023-02-06T12:46:29.245Z,99408.84
2023-02-06T12:50:40.778Z,99409.00
2023-02-06T12:54:49.661Z,99408.84
2023-02-06T12:59:03.152Z,99400.16
2023-02-06T13:03:22.038Z,99399.69
2023-02-06T13:07:29.708Z,99403.84
2023-02-06T13:11:39.250Z,99391.66
2023-02-06T13:15:43.638Z,99392.38
2023-02-06T13:20:09.130Z,99405.09
2023-02-06T13:24:21.114Z,99397.13
2023-02-06T13:29:05.007Z,99395.09
2023-02-06T13:33:15.966Z,99390.78
2023-02-06T13:37:34.666Z,99390.66
2023-02-06T13:41:38.810Z,99387.94
2023-02-06T13:45:47.370Z,99384.03
2023-02-06T13:50:21.424Z,99380.84
2023-02-06T13:54:58.927Z,99372.78
2023-02-06T13:59:06.821Z,99372.81
2023-02-06T14:03:17.612Z,99374.63
2023-02-06T14:07:58.863Z,99370.84
2023-02-06T14:12:31.031Z,99373.25
2023-02-06T14:16:45.806Z,99377.28
2023-02-06T14:20:58.541Z,99378.81
2023-02-06T14:25:10.517Z,99384.44
2023-02-06T14:29:29.352Z,99384.19
2023-02-06T14:33:56.260Z,99386.78
2023-02-06T14:38:23.271Z,99390.38
2023-02-06T14:42:30.413Z,99397.69
2023-02-06T14:46:34.891Z,99396.41
2023-02-06T14:50:42.584Z,99399.56
2023-02-06T14:54:46.107Z,99397.56
2023-02-06T14:58:49.429Z,99405.75
2023-02-06T15:03:07.322Z,99385.88
2023-02-06T15:07:23.644Z,99405.63
2023-02-06T15:11:33.013Z,99397.44
2023-02-06T15:15:36.527Z,99395.34
2023-02-06T15:19:41.573Z,99398.88
2023-02-06T15:23:59.270Z,99389.63
2023-02-06T15:28:05.934Z,99402.56
2023-02-06T15:32:21.815Z,99406.78
2023-02-06T15:36:32.336Z,99409.28
2023-02-06T15:40:39.359Z,99401.72
2023-02-06T15:44:43.161Z,99408.97
2023-02-06T15:48:52.052Z,99411.25
2023-02-06T15:52:57.354Z,99425.50
2023-02-06T15:57:05.236Z,99431.97
2023-02-06T16:01:15.530Z,99426.47
2023-02-06T16:05:26.914Z,99437.13
2023-02-06T16:09:32.138Z,99433.22
2023-02-06T16:13:46.901Z,99436.09
2023-02-06T16:17:49.977Z,99431.31
2023-02-06T16:22:05.922Z,99439.34
2023-02-06T16:26:18.336Z,99445.66
2023-02-06T16:30:23.712Z,99455.38
2023-02-06T16:34:37.630Z,99470.28
2023-02-06T16:38:43.158Z,99467.34
2023-02-06T16:42:49.502Z,99477.16
2023-02-06T16:46:53.282Z,99487.78
2023-02-06T16:50:56.530Z,99487.34
2023-02-06T16:55:00.588Z,99497.84
2023-02-06T16:59:05.102Z,99503.19
2023-02-06T17:03:08.316Z,99514.50
2023-02-06T17:07:15.881Z,99527.50
2023-02-06T17:11:19.359Z,99533.72
2023-02-06T17:15:24.186Z,99533.97
2023-02-06T17:19:27.625Z,99549.59
2023-02-06T17:23:30.507Z,99558.41
2023-02-06T17:27:34.107Z,99548.59
2023-02-06T17:31:38.669Z,99559.06
2023-02-06T17:35:41.941Z,99566.16
2023-02-06T17:39:44.964Z,99563.03
2023-02-06T17:43:48.285Z,99564.16
2023-02-06T17:47:54.136Z,99561.81
2023-02-06T17:51:57.208Z,99558.63
2023-02-06T17:56:05.524Z,99565.66
2023-02-06T18:00:13.454Z,99564.94
2023-02-06T18:04:20.493Z,99571.88
2023-02-06T18:08:23.946Z,99575.38
2023-02-06T18:12:27.167Z,99573.84
2023-02-06T18:16:30.919Z,99572.28
2023-02-06T18:20:37.194Z,99576.69
2023-02-06T18:24:41.398Z,99574.38
2023-02-06T18:28:45.306Z,99580.31
2023-02-06T18:32:49.360Z,99583.72
2023-02-06T18:36:53.799Z,99586.25
2023-02-06T18:40:56.935Z,99587.97
2023-02-06T18:44:59.844Z,99587.16
2023-02-06T18:49:03.270Z,99580.47
2023-02-06T18:53:08.025Z,99582.25
2023-02-06T18:57:11.137Z,99597.66
2023-02-06T19:01:16.421Z,99595.94
2023-02-06T19:05:20.231Z,99597.56
2023-02-06T19:09:24.969Z,99607.69
2023-02-06T19:13:28.067Z,99607.59
2023-02-06T19:17:31.650Z,99604.97
2023-02-06T19:21:35.042Z,99606.56
2023-02-06T19:25:42.295Z,99605.66
2023-02-06T19:29:45.286Z,99614.16
2023-02-06T19:33:48.834Z,99616.72
2023-02-06T19:37:53.019Z,99609.06
2023-02-06T19:41:58.223Z,99607.38
2023-02-06T19:46:04.038Z,99614.22
2023-02-06T19:50:08.087Z,99621.09
2023-02-06T19:54:11.250Z,99619.38
2023-02-06T19:58:16.305Z,99622.75
2023-02-06T20:02:19.795Z,99627.88
2023-02-06T20:06:23.744Z,99638.06
2023-02-06T20:10:26.948Z,99625.28
2023-02-06T20:14:32.117Z,99628.63
2023-02-06T20:18:37.183Z,99646.47
2023-02-06T20:22:41.653Z,99654.16
2023-02-06T20:26:45.113Z,99655.78
2023-02-06T20:30:49.985Z,99654.03
2023-02-06T20:34:53.304Z,99648.03
2023-02-06T20:38:58.624Z,99642.84
2023-02-06T20:43:02.106Z,99630.94
2023-02-06T20:47:06.514Z,99618.22
2023-02-06T20:51:09.701Z,99607.31
2023-02-06T20:55:13.286Z,99617.69
2023-02-06T20:59:18.255Z,99612.75
2023-02-06T21:03:23.451Z,99611.25
2023-02-06T21:07:26.846Z,99613.94
2023-02-06T21:11:31.286Z,99630.28
2023-02-06T21:15:34.772Z,99630.41
2023-02-06T21:19:39.490Z,99636.41
2023-02-06T21:23:43.944Z,99634.75
2023-02-06T21:27:47.071Z,99628.84
2023-02-06T21:31:55.753Z,99616.97
2023-02-06T21:36:08.538Z,99630.66
2023-02-06T21:40:12.323Z,99632.44
2023-02-06T21:44:15.794Z,99630.06
2023-02-06T21:48:18.638Z,99634.34
2023-02-06T21:52:23.462Z,99632.69
2023-02-06T21:56:28.825Z,99642.03
2023-02-06T22:00:31.950Z,99645.44
2023-02-06T22:04:35.342Z,99654.72
2023-02-06T22:08:41.714Z,99652.16
2023-02-06T22:12:45.067Z,99659.78
2023-02-06T22:16:48.471Z,99669.94
2023-02-06T22:20:52.734Z,99670.78
2023-02-06T22:24:57.269Z,99671.56
2023-02-06T22:29:01.288Z,99675.00
2023-02-06T22:33:04.442Z,99682.63
2023-02-06T22:37:07.783Z,99685.22
2023-02-06T22:41:15.978Z,99684.38
2023-02-06T22:45:19.556Z,99691.25
2023-02-06T22:49:24.387Z,99712.50
2023-02-06T22:53:33.403Z,99716.81
2023-02-06T22:57:38.290Z,99719.34
2023-02-06T23:01:43.763Z,99725.31
2023-02-06T23:05:47.206Z,99732.91
2023-02-06T23:09:50.407Z,99728.69
2023-02-06T23:13:55.967Z,99726.97
2023-02-06T23:17:59.629Z,99728.75
2023-02-06T23:22:02.880Z,99730.53
2023-02-06T23:26:10.477Z,99733.16
2023-02-06T23:30:16.126Z,99739.19
2023-02-06T23:34:19.811Z,99744.38
2023-02-06T23:38:23.262Z,99741.00
2023-02-06T23:42:26.366Z,99750.44
2023-02-06T23:46:34.936Z,99746.25
2023-02-06T23:50:37.829Z,99748.88
2023-02-06T23:54:41.275Z,99755.75
2023-02-06T23:58:45.105Z,99760.94
